Time;durP1;ratioP1;P1;durP2;ratioP2;P2;SDS_P1;SDS_P2;PMS_P1;PMS_P2;Temp;Humidity;BMP_temperature;BMP_pressure;BME280_temperature;BME280_humidity;BME280_pressure;Samples;Min_cycle;Max_cycle;Signal;HPM_P1;HPM_P2
2022/01/13 00:01:31;;;;;;;228.98;39.13;;;7.00;99.90;;;;;;5078050;28;20474;-77
2022/01/13 00:03:58;;;;;;;256.00;41.30;;;7.10;99.90;;;;;;5087037;28;20048;-78
2022/01/13 00:06:24;;;;;;;234.98;39.35;;;7.20;99.90;;;;;;5086436;28;20132;-77
2022/01/13 00:08:49;;;;;;;299.88;44.90;;;7.00;99.90;;;;;;5095244;28;20499;-77
2022/01/13 00:11:15;;;;;;;298.77;46.60;;;6.90;99.90;;;;;;5093843;28;20067;-77
2022/01/13 00:13:48;;;;;;;206.60;35.42;;;6.90;99.90;;;;;;5094851;28;20475;-77
2022/01/13 00:21:58;;;;;;;276.48;41.55;;;6.80;99.90;;;;;;5095140;28;20399;-77
2022/01/13 00:24:24;;;;;;;330.08;43.45;;;6.60;99.90;;;;;;5077855;28;20044;-77
2022/01/13 00:26:52;;;;;;;289.83;40.67;;;6.60;99.90;;;;;;5077373;28;20051;-77
2022/01/13 00:29:24;;;;;;;330.45;44.20;;;6.60;99.90;;;;;;5094404;28;20052;-77
2022/01/13 00:31:50;;;;;;;281.63;40.47;;;6.60;99.90;;;;;;5094398;28;20056;-77
2022/01/13 00:34:15;;;;;;;359.58;44.45;;;6.60;99.90;;;;;;5094335;28;20368;-77
2022/01/13 00:36:41;;;;;;;387.33;47.40;;;6.70;99.90;;;;;;5076975;28;20494;-77
2022/01/13 00:39:09;;;;;;;387.10;47.78;;;6.80;99.90;;;;;;5060442;28;20133;-77
2022/01/13 00:41:35;;;;;;;369.83;46.72;;;6.80;99.90;;;;;;5094112;28;20044;-77
2022/01/13 00:44:03;;;;;;;366.83;45.95;;;6.90;99.90;;;;;;5094150;28;20372;-77
2022/01/13 00:46:40;;;;;;;378.83;47.47;;;6.70;99.90;;;;;;5077084;28;20047;-77
2022/01/13 00:49:06;;;;;;;318.58;43.65;;;6.70;99.90;;;;;;5094004;28;20154;-77
2022/01/13 00:51:31;;;;;;;367.00;45.97;;;6.60;99.90;;;;;;5093097;28;20099;-78
2022/01/13 00:54:03;;;;;;;376.30;46.42;;;6.60;99.90;;;;;;5093597;28;20067;-77
2022/01/13 00:56:30;;;;;;;292.58;41.60;;;6.50;99.90;;;;;;5093962;28;20048;-77
2022/01/13 00:58:56;;;;;;;282.70;40.65;;;6.50;99.90;;;;;;5093509;28;20048;-77
2022/01/13 01:01:22;;;;;;;264.13;40.00;;;6.60;99.90;;;;;;5076767;28;20056;-77
2022/01/13 01:03:48;;;;;;;224.98;37.80;;;6.70;99.90;;;;;;5093886;28;20048;-77
2022/01/13 01:06:13;;;;;;;312.38;41.90;;;6.80;99.90;;;;;;5093538;28;20097;-77
2022/01/13 01:08:40;;;;;;;287.00;40.83;;;6.90;99.90;;;;;;5093647;28;20048;-77
2022/01/13 01:11:06;;;;;;;224.85;37.05;;;6.90;99.90;;;;;;5093588;28;20056;-77
2022/01/13 01:13:35;;;;;;;282.08;41.53;;;6.90;99.90;;;;;;5093549;28;20498;-77
2022/01/13 01:16:05;;;;;;;158.88;32.20;;;6.80;99.90;;;;;;5093160;28;20415;-77
2022/01/13 01:23:45;;;;;;;225.77;37.67;;;6.90;99.90;;;;;;5092793;28;20052;-77
2022/01/13 01:26:38;;;;;;;195.80;34.60;;;6.90;99.90;;;;;;5093275;28;20490;-77
2022/01/13 01:29:25;;;;;;;195.85;37.22;;;6.90;99.90;;;;;;5093991;28;20044;-77
2022/01/13 01:31:54;;;;;;;185.07;33.95;;;6.80;99.90;;;;;;5093488;28;20059;-77
2022/01/13 01:34:46;;;;;;;172.55;32.05;;;6.60;99.90;;;;;;5093308;28;20056;-77
2022/01/13 01:37:17;;;;;;;176.38;33.42;;;6.70;99.90;;;;;;5092506;28;20467;-77
2022/01/13 01:39:45;;;;;;;219.75;37.13;;;6.70;99.90;;;;;;5077761;28;20091;-77
2022/01/13 01:42:11;;;;;;;243.90;38.17;;;6.70;99.90;;;;;;5075651;28;20084;-77
2022/01/13 01:44:41;;;;;;;213.27;34.60;;;6.70;99.90;;;;;;5092636;28;20076;-77
2022/01/13 01:47:10;;;;;;;185.18;33.53;;;6.70;99.90;;;;;;5092708;28;20047;-77
2022/01/13 01:49:41;;;;;;;181.32;34.17;;;6.70;99.90;;;;;;5092680;28;20475;-77
2022/01/13 01:52:08;;;;;;;198.45;32.92;;;6.60;99.90;;;;;;5093179;28;20048;-77
2022/01/13 01:54:34;;;;;;;153.07;31.17;;;6.60;99.90;;;;;;5092788;28;20079;-77
2022/01/13 01:57:01;;;;;;;214.32;36.53;;;6.70;99.90;;;;;;5092943;28;20454;-77
2022/01/13 01:59:30;;;;;;;210.00;33.78;;;6.50;99.90;;;;;;5092471;28;20082;-77
2022/01/13 02:01:56;;;;;;;216.55;35.33;;;6.40;99.90;;;;;;5092885;28;20076;-77
2022/01/13 02:04:25;;;;;;;227.68;35.65;;;6.40;99.90;;;;;;5092698;28;20436;-77
2022/01/13 02:06:52;;;;;;;211.60;33.42;;;6.50;99.90;;;;;;5091819;28;20044;-77
2022/01/13 02:09:19;;;;;;;167.75;32.20;;;6.40;99.90;;;;;;5092713;28;20105;-77
2022/01/13 02:11:49;;;;;;;229.32;37.05;;;6.50;99.90;;;;;;5076132;28;20398;-77
2022/01/13 02:14:48;;;;;;;200.02;33.65;;;6.40;99.90;;;;;;5093007;28;20048;-77
2022/01/13 02:17:10;;;;;;;169.90;31.20;;;6.30;99.90;;;;;;5091520;28;20052;-77
2022/01/13 02:19:39;;;;;;;200.93;34.05;;;6.40;99.90;;;;;;5092637;28;20082;-77
2022/01/13 02:22:06;;;;;;;204.93;34.72;;;6.40;99.90;;;;;;5092478;28;20094;-77
2022/01/13 02:24:34;;;;;;;212.45;35.50;;;6.50;99.90;;;;;;5092621;28;20048;-77
2022/01/13 02:27:01;;;;;;;203.20;36.50;;;6.50;99.90;;;;;;5092463;28;20040;-77
2022/01/13 02:29:26;;;;;;;195.75;34.25;;;6.50;99.90;;;;;;5075673;28;20044;-77
2022/01/13 02:31:52;;;;;;;216.88;35.35;;;6.60;99.90;;;;;;5092500;28;20048;-77
2022/01/13 02:34:19;;;;;;;216.43;37.70;;;6.60;99.90;;;;;;5076735;28;20056;-77
2022/01/13 02:36:46;;;;;;;156.32;31.30;;;6.60;99.90;;;;;;5096109;28;20109;-77
2022/01/13 02:39:12;;;;;;;183.38;36.60;;;6.50;99.90;;;;;;5079634;28;20051;-77
2022/01/13 02:41:37;;;;;;;189.35;33.85;;;6.60;99.90;;;;;;5089394;28;20139;-78
2022/01/13 02:44:13;;;;;;;183.18;35.35;;;6.60;99.90;;;;;;5095449;28;20047;-77
2022/01/13 02:49:07;;;;;;;176.75;33.90;;;6.50;99.90;;;;;;5113166;28;20469;-77
2022/01/13 02:51:33;;;;;;;160.50;33.28;;;6.60;99.90;;;;;;5095795;28;20127;-77
2022/01/13 02:53:59;;;;;;;152.93;32.58;;;6.60;99.90;;;;;;5130380;27;20461;-77
2022/01/13 02:56:25;;;;;;;170.10;34.72;;;6.70;99.90;;;;;;5096216;28;20090;-77
2022/01/13 02:58:51;;;;;;;163.65;32.90;;;6.80;99.90;;;;;;5079494;28;20506;-77
2022/01/13 03:01:17;;;;;;;186.57;35.42;;;6.80;99.90;;;;;;5097362;28;20048;-77
2022/01/13 03:03:44;;;;;;;175.57;32.95;;;6.60;99.90;;;;;;5095991;28;20044;-77
2022/01/13 03:06:12;;;;;;;158.75;30.77;;;6.60;99.90;;;;;;5095298;28;20051;-77
2022/01/13 03:08:41;;;;;;;208.23;34.97;;;6.50;99.90;;;;;;5129603;27;20081;-77
2022/01/13 03:11:07;;;;;;;165.40;34.03;;;6.70;99.90;;;;;;5095883;28;20434;-77
2022/01/13 03:13:33;;;;;;;149.65;30.05;;;6.60;99.90;;;;;;5095618;28;20055;-77
2022/01/13 03:16:05;;;;;;;199.13;34.90;;;6.50;99.90;;;;;;5096121;28;20105;-77
2022/01/13 03:18:30;;;;;;;206.60;34.75;;;6.50;99.90;;;;;;5095989;28;20044;-77
2022/01/13 03:20:56;;;;;;;199.50;35.80;;;6.50;99.90;;;;;;5078943;28;20070;-77
2022/01/13 03:23:22;;;;;;;168.38;32.53;;;6.60;99.90;;;;;;5129878;27;20098;-77
2022/01/13 03:25:48;;;;;;;142.90;29.80;;;6.50;99.90;;;;;;5096618;28;20457;-77
2022/01/13 03:28:18;;;;;;;151.65;32.08;;;6.40;99.90;;;;;;5078706;28;20453;-77
2022/01/13 03:30:46;;;;;;;189.30;34.08;;;6.40;99.90;;;;;;5095551;28;20172;-78
2022/01/13 03:33:13;;;;;;;210.45;35.63;;;6.50;99.90;;;;;;5078391;28;20051;-77
2022/01/13 03:35:39;;;;;;;204.70;35.00;;;6.50;99.90;;;;;;5094696;28;20051;-78
2022/01/13 03:38:06;;;;;;;220.75;36.72;;;6.40;99.90;;;;;;5078487;28;20368;-77
2022/01/13 03:40:33;;;;;;;174.13;32.50;;;6.40;99.90;;;;;;5095272;28;20052;-77
2022/01/13 03:43:01;;;;;;;231.10;36.08;;;6.40;99.90;;;;;;5078613;28;20484;-77
2022/01/13 03:45:27;;;;;;;192.70;33.70;;;6.40;99.90;;;;;;5095275;28;20055;-77
2022/01/13 03:47:53;;;;;;;194.68;33.88;;;6.40;99.90;;;;;;5094774;28;20055;-77
2022/01/13 03:50:19;;;;;;;225.05;36.85;;;6.50;99.90;;;;;;5094885;28;20056;-77
2022/01/13 03:52:57;;;;;;;231.00;38.83;;;6.60;99.90;;;;;;5095535;28;20060;-77
2022/01/13 03:55:35;;;;;;;215.07;36.42;;;6.50;99.90;;;;;;5094985;28;20056;-77
2022/01/13 03:58:38;;;;;;;243.25;39.78;;;6.40;99.90;;;;;;5094753;28;20052;-77
2022/01/13 04:01:29;;;;;;;264.42;38.30;;;6.40;99.90;;;;;;5078129;28;20048;-77
2022/01/13 04:03:54;;;;;;;237.60;37.72;;;6.30;99.90;;;;;;5094942;28;20395;-77
2022/01/13 04:06:20;;;;;;;173.85;32.78;;;6.30;99.90;;;;;;5094259;28;20044;-77
2022/01/13 04:08:47;;;;;;;228.60;35.05;;;6.40;99.90;;;;;;5094753;28;20129;-77
2022/01/13 04:11:16;;;;;;;288.63;39.35;;;6.40;99.90;;;;;;5095757;28;20062;-77
2022/01/13 04:14:02;;;;;;;281.88;39.13;;;6.50;99.90;;;;;;5094689;28;20048;-77
2022/01/13 04:16:31;;;;;;;252.27;35.75;;;6.50;99.90;;;;;;5095415;28;20055;-77
2022/01/13 04:19:02;;;;;;;282.55;40.80;;;6.50;99.90;;;;;;5094692;28;20052;-77
2022/01/13 04:21:28;;;;;;;292.42;40.08;;;6.50;99.90;;;;;;5095614;28;20047;-77
2022/01/13 04:23:56;;;;;;;235.50;36.67;;;6.40;99.90;;;;;;5077808;28;20051;-77
2022/01/13 04:26:28;;;;;;;286.15;41.03;;;6.40;99.90;;;;;;5094476;28;20044;-77
2022/01/13 04:31:36;;;;;;;248.52;37.45;;;6.30;99.90;;;;;;5094412;28;20143;-77
2022/01/13 04:34:02;;;;;;;260.75;40.28;;;6.30;99.90;;;;;;5094331;28;20052;-77
2022/01/13 04:36:28;;;;;;;272.08;40.50;;;6.20;99.90;;;;;;5093765;28;20494;-78
2022/01/13 04:38:53;;;;;;;280.42;38.85;;;6.20;99.90;;;;;;5094263;28;20399;-77
2022/01/13 04:41:29;;;;;;;224.98;35.45;;;6.20;99.90;;;;;;5094166;28;20044;-77
2022/01/13 04:43:55;;;;;;;294.42;40.13;;;6.20;99.90;;;;;;5093899;28;20113;-77
2022/01/13 04:46:21;;;;;;;333.13;43.05;;;6.30;99.90;;;;;;5094160;28;20047;-77
2022/01/13 04:48:46;;;;;;;320.48;43.28;;;6.40;99.90;;;;;;5094039;28;20048;-77
2022/01/13 04:51:12;;;;;;;326.67;42.28;;;6.40;99.90;;;;;;5060248;28;20099;-77
2022/01/13 04:53:38;;;;;;;284.25;40.20;;;6.40;99.90;;;;;;5093938;28;20058;-77
2022/01/13 04:56:10;;;;;;;290.20;39.53;;;6.40;99.90;;;;;;5093894;28;20047;-77
2022/01/13 04:58:36;;;;;;;304.40;41.13;;;6.30;99.90;;;;;;5093816;28;20059;-77
2022/01/13 05:01:02;;;;;;;286.20;40.72;;;6.40;99.90;;;;;;5093784;28;20063;-77
2022/01/13 05:03:28;;;;;;;279.05;37.25;;;6.40;99.90;;;;;;5090899;28;20067;-78
2022/01/13 05:05:53;;;;;;;305.67;39.20;;;6.30;99.90;;;;;;5072984;28;20095;-77
2022/01/13 05:08:19;;;;;;;284.67;40.50;;;6.30;99.90;;;;;;5073481;28;20058;-77
2022/01/13 05:10:45;;;;;;;213.68;33.25;;;6.20;99.90;;;;;;5073381;28;20126;-77
2022/01/13 05:13:11;;;;;;;329.25;42.10;;;6.30;99.90;;;;;;5073290;28;20052;-77
2022/01/13 05:15:39;;;;;;;316.15;41.78;;;6.40;99.90;;;;;;5073432;28;20056;-77
2022/01/13 05:20:57;;;;;;;231.25;35.38;;;6.40;99.90;;;;;;5107497;28;20094;-77
2022/01/13 05:23:22;;;;;;;290.17;39.45;;;6.40;99.90;;;;;;5072926;28;20052;-77
2022/01/13 05:25:48;;;;;;;252.32;37.50;;;6.50;99.90;;;;;;5090198;28;20040;-77
2022/01/13 05:28:14;;;;;;;245.32;36.63;;;6.40;99.90;;;;;;5089634;28;20051;-77
2022/01/13 05:30:41;;;;;;;225.05;34.97;;;6.40;99.90;;;;;;5073145;28;20049;-77
2022/01/13 05:33:07;;;;;;;250.80;36.33;;;6.30;99.90;;;;;;5073821;28;20044;-77
2022/01/13 05:35:34;;;;;;;256.10;37.25;;;6.50;99.90;;;;;;5073132;28;20056;-77
2022/01/13 05:38:00;;;;;;;317.27;41.78;;;6.50;99.90;;;;;;5072537;28;20531;-77
2022/01/13 05:40:26;;;;;;;333.70;43.60;;;6.40;99.90;;;;;;5072887;28;20101;-77
2022/01/13 05:42:52;;;;;;;344.23;44.50;;;6.40;99.90;;;;;;5072958;28;20048;-77
2022/01/13 05:45:20;;;;;;;301.38;42.20;;;6.30;99.90;;;;;;5072954;28;20048;-77
2022/01/13 05:47:48;;;;;;;294.98;39.03;;;6.20;99.90;;;;;;5072800;28;20041;-77
2022/01/13 05:50:16;;;;;;;360.92;43.20;;;6.40;99.90;;;;;;5072647;28;20052;-77
2022/01/13 05:52:42;;;;;;;288.25;38.45;;;6.40;99.90;;;;;;5073066;28;20052;-77
2022/01/13 05:55:09;;;;;;;331.13;41.03;;;6.30;99.90;;;;;;5072870;28;20145;-77
2022/01/13 05:57:35;;;;;;;352.10;41.05;;;6.40;99.90;;;;;;5056367;28;20048;-77
2022/01/13 06:00:01;;;;;;;330.23;40.47;;;6.50;99.90;;;;;;5055753;28;20102;-77
2022/01/13 06:02:27;;;;;;;349.60;41.80;;;6.60;99.90;;;;;;5089198;28;20059;-77
2022/01/13 06:04:52;;;;;;;351.83;44.28;;;6.60;99.90;;;;;;5089298;28;20084;-77
2022/01/13 06:07:18;;;;;;;203.52;34.25;;;6.70;99.90;;;;;;5072048;28;20048;-78
2022/01/13 06:09:44;;;;;;;371.80;44.60;;;6.70;99.90;;;;;;5072101;28;20098;-77
2022/01/13 06:12:10;;;;;;;380.65;44.15;;;6.80;99.90;;;;;;5072449;28;20044;-77
2022/01/13 06:14:35;;;;;;;362.00;43.70;;;6.80;99.90;;;;;;5089387;28;20106;-77
2022/01/13 06:17:02;;;;;;;290.48;38.35;;;6.80;99.90;;;;;;5072649;28;20052;-77
2022/01/13 06:19:27;;;;;;;361.38;46.03;;;6.90;99.90;;;;;;5072665;28;20476;-77
2022/01/13 06:21:53;;;;;;;384.75;44.47;;;6.90;99.90;;;;;;5072530;28;20063;-77
2022/01/13 06:24:19;;;;;;;281.52;38.35;;;6.80;99.90;;;;;;5039103;28;20055;-77
2022/01/13 06:26:44;;;;;;;388.90;47.70;;;6.80;99.90;;;;;;5089135;28;20383;-77
2022/01/13 06:29:10;;;;;;;396.75;45.83;;;6.90;99.90;;;;;;5073049;28;20052;-77
2022/01/13 06:31:36;;;;;;;361.67;45.45;;;6.80;99.90;;;;;;5072303;28;20041;-77
2022/01/13 06:34:02;;;;;;;420.05;50.58;;;6.80;99.90;;;;;;5072283;28;20040;-77
2022/01/13 06:36:28;;;;;;;401.35;50.65;;;6.90;99.90;;;;;;5071928;28;20130;-78
2022/01/13 06:38:54;;;;;;;423.52;51.63;;;6.90;99.90;;;;;;5072318;28;20045;-77
2022/01/13 06:41:20;;;;;;;398.42;51.50;;;6.90;99.90;;;;;;5072758;28;20056;-77
2022/01/13 06:43:46;;;;;;;388.05;47.88;;;6.90;99.90;;;;;;5072340;28;20048;-77
2022/01/13 06:46:14;;;;;;;356.50;47.60;;;6.90;99.90;;;;;;5072084;28;20048;-77
2022/01/13 06:48:40;;;;;;;423.38;48.92;;;6.90;99.90;;;;;;5072185;28;20051;-78
2022/01/13 06:51:06;;;;;;;399.17;49.35;;;6.90;99.90;;;;;;5071819;28;20049;-77
2022/01/13 06:53:31;;;;;;;365.30;49.72;;;6.90;99.90;;;;;;5072325;28;20057;-77
2022/01/13 06:55:57;;;;;;;407.50;51.28;;;6.90;99.90;;;;;;5072082;28;20079;-77
2022/01/13 06:58:23;;;;;;;390.75;51.85;;;7.00;99.90;;;;;;5072343;28;20063;-77
2022/01/13 07:00:48;;;;;;;377.48;51.13;;;7.10;99.90;;;;;;5072352;28;20044;-77
2022/01/13 07:03:14;;;;;;;390.50;50.90;;;7.00;99.90;;;;;;5072140;28;20044;-77
2022/01/13 07:05:40;;;;;;;343.05;51.03;;;7.00;99.90;;;;;;5071984;28;20083;-77
2022/01/13 07:08:10;;;;;;;356.98;52.47;;;7.10;99.90;;;;;;5071538;28;20052;-77
2022/01/13 07:10:36;;;;;;;315.65;49.85;;;7.10;99.90;;;;;;5089302;28;20052;-77
2022/01/13 07:13:02;;;;;;;336.15;51.60;;;7.10;99.90;;;;;;5088865;28;20052;-77
2022/01/13 07:15:29;;;;;;;364.58;60.00;;;7.00;99.90;;;;;;5071737;28;20048;-77
2022/01/13 07:17:54;;;;;;;336.35;50.72;;;7.20;99.90;;;;;;5071921;28;20468;-77
2022/01/13 07:20:20;;;;;;;232.45;40.58;;;7.10;99.90;;;;;;5038766;28;20047;-77
2022/01/13 07:22:46;;;;;;;337.17;49.05;;;7.10;99.90;;;;;;5074772;28;20049;-77
2022/01/13 07:25:12;;;;;;;225.88;43.42;;;7.20;99.90;;;;;;5075489;28;20434;-77
2022/01/13 07:27:38;;;;;;;370.27;55.20;;;7.30;99.90;;;;;;5092010;28;20051;-77
2022/01/13 07:30:05;;;;;;;336.65;51.60;;;7.30;99.90;;;;;;5092413;28;20048;-77
2022/01/13 07:32:30;;;;;;;190.30;38.58;;;7.20;99.90;;;;;;5075175;28;20078;-77
2022/01/13 07:34:56;;;;;;;405.60;53.15;;;7.10;99.90;;;;;;5075356;28;20372;-77
2022/01/13 07:37:24;;;;;;;401.42;51.53;;;7.30;99.90;;;;;;5091787;28;20078;-78
2022/01/13 07:39:50;;;;;;;442.85;54.58;;;7.30;99.90;;;;;;5075294;28;20048;-77
2022/01/13 07:42:16;;;;;;;389.42;51.85;;;7.30;99.90;;;;;;5058593;28;20090;-77
2022/01/13 07:44:42;;;;;;;420.33;53.22;;;7.30;99.90;;;;;;5058200;28;20451;-77
2022/01/13 07:47:08;;;;;;;383.88;49.08;;;7.30;99.90;;;;;;5074841;28;20388;-77
2022/01/13 07:49:40;;;;;;;360.33;48.05;;;7.10;99.90;;;;;;5074961;28;20044;-77
2022/01/13 07:52:06;;;;;;;389.70;49.22;;;7.20;99.90;;;;;;5074172;28;20102;-77
2022/01/13 07:54:32;;;;;;;279.60;42.20;;;7.10;99.90;;;;;;5058314;28;20138;-77
2022/01/13 07:56:58;;;;;;;229.38;41.50;;;7.10;99.90;;;;;;5058229;28;20048;-77
2022/01/13 07:59:27;;;;;;;407.38;54.28;;;7.10;99.90;;;;;;5091472;28;20055;-78
2022/01/13 08:02:00;;;;;;;428.73;56.42;;;7.20;99.90;;;;;;5092068;28;20056;-72
2022/01/13 08:04:26;;;;;;;295.60;43.85;;;7.00;99.90;;;;;;5075680;28;20048;-72
2022/01/13 08:06:52;;;;;;;364.27;52.00;;;7.00;99.90;;;;;;5074121;28;20048;-73
2022/01/13 08:09:17;;;;;;;301.20;45.30;;;7.00;99.90;;;;;;5074605;28;20387;-74
2022/01/13 08:11:44;;;;;;;379.23;52.75;;;6.90;99.90;;;;;;5075508;28;20122;-72
2022/01/13 08:14:10;;;;;;;349.23;49.28;;;6.80;99.90;;;;;;5074489;28;20124;-72
2022/01/13 08:16:37;;;;;;;306.92;44.03;;;6.90;99.90;;;;;;5074338;28;20135;-72
2022/01/13 08:21:48;;;;;;;366.88;48.25;;;6.90;99.90;;;;;;5108346;28;20075;-72
2022/01/13 08:24:14;;;;;;;367.17;46.92;;;7.00;99.90;;;;;;5075417;28;20044;-72
2022/01/13 08:26:40;;;;;;;374.63;48.60;;;7.00;99.90;;;;;;5074041;28;20442;-72
2022/01/13 08:29:05;;;;;;;340.35;48.00;;;7.10;99.90;;;;;;5073906;28;20052;-72
2022/01/13 08:31:31;;;;;;;336.80;47.00;;;7.10;99.90;;;;;;5073985;28;20040;-72
2022/01/13 08:33:57;;;;;;;329.05;44.47;;;7.20;99.90;;;;;;5073817;28;20459;-72
2022/01/13 08:36:23;;;;;;;313.17;45.20;;;7.10;99.90;;;;;;5074937;28;20080;-72
2022/01/13 08:38:49;;;;;;;281.65;42.58;;;7.10;99.90;;;;;;5057432;28;20135;-71
2022/01/13 08:41:16;;;;;;;317.10;46.28;;;7.00;99.90;;;;;;5074271;28;20060;-71
2022/01/13 08:43:41;;;;;;;329.70;47.40;;;7.10;99.90;;;;;;5073615;28;20051;-71
2022/01/13 08:46:07;;;;;;;335.75;46.03;;;7.10;99.90;;;;;;5074668;28;20136;-72
2022/01/13 08:48:34;;;;;;;251.15;40.83;;;7.10;99.90;;;;;;5073705;28;20059;-72
2022/01/13 08:51:01;;;;;;;297.60;43.78;;;7.10;99.90;;;;;;5073312;28;20099;-72
2022/01/13 08:53:27;;;;;;;318.15;44.10;;;7.10;99.90;;;;;;5074172;28;20099;-72
2022/01/13 08:55:54;;;;;;;337.30;48.00;;;6.90;99.90;;;;;;5074867;28;20076;-72
2022/01/13 08:58:22;;;;;;;338.70;48.53;;;6.90;99.90;;;;;;5073597;28;20083;-72
2022/01/13 09:00:49;;;;;;;368.60;48.53;;;6.90;99.90;;;;;;5077467;28;20468;-73
2022/01/13 09:03:15;;;;;;;366.88;51.20;;;6.90;99.90;;;;;;5080355;28;20055;-71
2022/01/13 09:05:42;;;;;;;313.15;46.15;;;7.00;99.90;;;;;;5074330;28;20044;-71
2022/01/13 09:08:10;;;;;;;246.30;41.60;;;7.00;99.90;;;;;;5073993;28;20364;-72
2022/01/13 09:10:39;;;;;;;310.42;47.17;;;7.10;99.90;;;;;;5074283;28;20052;-73
2022/01/13 09:13:11;;;;;;;355.90;48.60;;;7.10;99.90;;;;;;5073270;28;20472;-72
2022/01/13 09:15:41;;;;;;;332.65;46.67;;;7.20;99.90;;;;;;5056932;28;20052;-72
2022/01/13 09:18:14;;;;;;;332.17;48.83;;;7.20;99.90;;;;;;5074232;28;20062;-72
2022/01/13 09:20:41;;;;;;;309.60;47.13;;;7.20;99.90;;;;;;5073073;28;20395;-71
2022/01/13 09:23:08;;;;;;;319.60;51.38;;;7.30;99.90;;;;;;5073409;28;20084;-71
2022/01/13 09:25:34;;;;;;;301.48;47.33;;;7.30;99.90;;;;;;5072994;28;20056;-71
2022/01/13 09:28:02;;;;;;;278.30;45.60;;;7.30;99.90;;;;;;5074061;28;20127;-71
2022/01/13 09:30:28;;;;;;;263.60;46.83;;;7.30;99.90;;;;;;5074011;28;20054;-73
2022/01/13 09:32:53;;;;;;;264.83;47.72;;;7.30;99.90;;;;;;5073520;28;20048;-75
2022/01/13 09:35:19;;;;;;;274.58;46.35;;;7.40;99.90;;;;;;5074269;28;20056;-73
2022/01/13 09:37:45;;;;;;;173.45;36.80;;;7.40;99.90;;;;;;5092147;28;20036;-72
2022/01/13 09:40:12;;;;;;;286.88;47.60;;;7.40;99.90;;;;;;5065393;28;20123;-72
2022/01/13 09:42:40;;;;;;;308.60;49.38;;;7.40;99.90;;;;;;5082747;28;20044;-72
2022/01/13 09:45:07;;;;;;;233.52;45.45;;;7.40;99.90;;;;;;5086943;28;20101;-71
2022/01/13 09:47:35;;;;;;;252.57;46.22;;;7.30;99.90;;;;;;5072411;28;20485;-72
2022/01/13 09:50:04;;;;;;;292.67;48.13;;;7.30;99.90;;;;;;5072458;28;20052;-72
2022/01/13 09:52:30;;;;;;;272.42;48.15;;;7.30;99.90;;;;;;5073572;28;20052;-72
2022/01/13 09:54:56;;;;;;;305.92;50.42;;;7.30;99.90;;;;;;5072554;28;20041;-72
2022/01/13 09:57:22;;;;;;;236.52;45.70;;;7.40;99.90;;;;;;5073483;28;20048;-74
2022/01/13 09:59:48;;;;;;;253.50;44.63;;;7.40;99.90;;;;;;5072754;28;20139;-72
2022/01/13 10:02:14;;;;;;;246.48;48.38;;;7.50;99.90;;;;;;5072799;28;20141;-72
2022/01/13 10:04:58;;;;;;;237.07;45.08;;;7.30;99.90;;;;;;5089089;28;20045;-71
2022/01/13 10:07:36;;;;;;;242.15;45.00;;;7.30;99.90;;;;;;5055694;28;20411;-73
2022/01/13 10:10:15;;;;;;;257.52;47.92;;;7.40;99.90;;;;;;5072571;28;20056;-71
2022/01/13 10:12:49;;;;;;;243.07;48.22;;;7.40;99.90;;;;;;5072339;28;20088;-71
2022/01/13 10:18:05;;;;;;;218.98;42.17;;;7.30;99.90;;;;;;5072383;28;20153;-72
2022/01/13 10:20:32;;;;;;;181.55;41.15;;;7.30;99.90;;;;;;5073831;28;20041;-72
2022/01/13 10:23:09;;;;;;;200.40;42.13;;;7.40;99.90;;;;;;5072003;28;20391;-72
2022/01/13 10:25:37;;;;;;;217.52;44.17;;;7.40;99.90;;;;;;5073280;28;20111;-72
2022/01/13 10:28:21;;;;;;;183.35;42.75;;;7.30;99.90;;;;;;5073594;28;20318;-71
2022/01/13 10:30:53;;;;;;;160.07;41.03;;;7.30;99.90;;;;;;5106186;28;20097;-71
2022/01/13 10:33:28;;;;;;;159.57;38.90;;;7.30;99.90;;;;;;5073221;28;20045;-72
2022/01/13 10:36:05;;;;;;;186.23;42.75;;;7.20;99.90;;;;;;5078815;28;20055;-72
2022/01/13 10:38:56;;;;;;;181.82;40.08;;;7.20;99.90;;;;;;5092632;28;20127;-71
2022/01/13 10:41:36;;;;;;;158.65;37.83;;;7.30;99.90;;;;;;5092421;28;20493;-71
2022/01/13 10:44:16;;;;;;;157.73;40.50;;;7.40;99.90;;;;;;5092354;28;20051;-72
2022/01/13 10:46:56;;;;;;;176.55;40.60;;;7.40;99.90;;;;;;5092157;28;20052;-72
2022/01/13 10:49:37;;;;;;;167.68;39.65;;;7.50;99.90;;;;;;5092108;28;20123;-71
2022/01/13 10:52:24;;;;;;;157.70;37.88;;;7.50;99.90;;;;;;5075062;28;20060;-72
2022/01/13 10:55:05;;;;;;;148.60;36.30;;;7.40;99.90;;;;;;5073666;28;20045;-71
2022/01/13 10:57:31;;;;;;;175.38;39.55;;;7.20;99.90;;;;;;5085545;28;20040;-72
2022/01/13 10:59:57;;;;;;;168.30;42.30;;;7.10;99.90;;;;;;5092679;28;20115;-73
2022/01/13 11:02:24;;;;;;;160.85;40.20;;;7.10;99.90;;;;;;5092680;28;20124;-71
2022/01/13 11:04:49;;;;;;;151.55;37.38;;;7.10;99.90;;;;;;5077424;28;20051;-74
2022/01/13 11:07:17;;;;;;;153.10;35.83;;;7.10;99.90;;;;;;5094570;28;20101;-73
2022/01/13 11:09:55;;;;;;;161.85;37.42;;;7.20;99.90;;;;;;5096146;28;20059;-72
2022/01/13 11:12:35;;;;;;;172.05;40.72;;;7.20;99.90;;;;;;5095549;28;20476;-76
2022/01/13 11:15:06;;;;;;;175.68;39.88;;;7.20;99.90;;;;;;5095745;28;20131;-71
2022/01/13 11:17:35;;;;;;;182.15;38.80;;;7.30;99.90;;;;;;5095623;28;20040;-71
2022/01/13 11:20:03;;;;;;;176.80;41.00;;;7.30;99.90;;;;;;5096873;28;20083;-71
2022/01/13 11:22:34;;;;;;;195.02;40.78;;;7.30;99.90;;;;;;5096714;28;20082;-71
2022/01/13 11:25:02;;;;;;;164.50;41.35;;;7.50;99.90;;;;;;5096854;28;20048;-71
2022/01/13 11:27:28;;;;;;;172.15;38.67;;;7.50;99.90;;;;;;5095554;28;20458;-71
2022/01/13 11:29:55;;;;;;;147.45;37.60;;;7.40;99.90;;;;;;5096577;28;20048;-71
2022/01/13 11:32:21;;;;;;;158.32;39.00;;;7.50;99.90;;;;;;5095231;28;20051;-71
2022/01/13 11:34:48;;;;;;;145.82;36.40;;;7.50;99.90;;;;;;5096500;28;20161;-71
2022/01/13 11:37:15;;;;;;;157.20;39.38;;;7.50;99.90;;;;;;5095928;28;20106;-71
2022/01/13 11:39:44;;;;;;;127.32;34.42;;;7.50;99.90;;;;;;5078486;28;20485;-72
2022/01/13 11:42:14;;;;;;;158.23;37.40;;;7.40;99.90;;;;;;5095331;28;20360;-72
2022/01/13 11:44:42;;;;;;;141.00;37.70;;;7.50;99.90;;;;;;5095176;28;20048;-72
2022/01/13 11:47:26;;;;;;;147.73;38.42;;;7.60;99.90;;;;;;5095040;28;20153;-71
2022/01/13 11:49:59;;;;;;;130.68;33.90;;;7.50;99.90;;;;;;5094790;28;20475;-87
2022/01/13 11:52:44;;;;;;;145.90;36.92;;;7.50;99.90;;;;;;5094609;28;20086;-78
2022/01/13 11:55:26;;;;;;;120.20;34.08;;;7.40;99.90;;;;;;5097337;28;20492;-74
2022/01/13 11:58:12;;;;;;;115.35;34.53;;;7.40;99.90;;;;;;5095959;28;20055;-78
2022/01/13 12:00:38;;;;;;;124.20;32.70;;;7.40;99.90;;;;;;5095196;28;20055;-76
2022/01/13 12:03:23;;;;;;;128.52;36.78;;;7.40;99.90;;;;;;5078014;28;20048;-75
2022/01/13 12:05:48;;;;;;;130.65;33.50;;;7.50;99.90;;;;;;5078189;28;20075;-77
2022/01/13 12:08:56;;;;;;;114.10;34.80;;;7.60;99.90;;;;;;5076824;28;20086;-77
2022/01/13 12:11:38;;;;;;;108.75;32.47;;;7.60;99.90;;;;;;5036915;28;20111;-78
2022/01/13 12:14:32;;;;;;;106.05;33.53;;;7.50;99.90;;;;;;5036708;28;20110;-79
2022/01/13 12:17:05;;;;;;;95.85;33.53;;;7.40;99.90;;;;;;5098857;28;20405;-79
2022/01/13 12:19:45;;;;;;;91.90;30.30;;;7.30;99.90;;;;;;5078069;28;20050;-81
2022/01/13 12:23:17;;;;;;;100.75;29.88;;;7.30;99.90;;;;;;5095280;28;20047;-77
2022/01/13 12:25:32;;;;;;;99.72;30.70;;;7.40;99.90;;;;;;5070866;28;20110;-79
2022/01/13 12:28:10;;;;;;;106.63;32.80;;;7.50;99.90;;;;;;5059635;28;20440;-79
2022/01/13 12:30:36;;;;;;;98.45;31.45;;;7.50;99.90;;;;;;5074164;28;20041;-79
2022/01/13 12:33:06;;;;;;;111.13;34.15;;;7.50;99.90;;;;;;5074027;28;20045;-79
2022/01/13 12:35:35;;;;;;;98.07;32.03;;;7.50;99.90;;;;;;5074273;28;20116;-78
2022/01/13 12:38:15;;;;;;;101.47;32.25;;;7.50;99.90;;;;;;5072895;28;20041;-79
2022/01/13 12:41:13;;;;;;;99.88;35.20;;;7.50;99.90;;;;;;5075055;28;20479;-78
2022/01/13 12:46:09;;;;;;;80.43;32.65;;;7.60;99.90;;;;;;5088900;28;20048;-76
2022/01/13 12:48:37;;;;;;;86.38;31.55;;;7.60;99.90;;;;;;5056933;28;20388;-75
2022/01/13 12:51:03;;;;;;;86.22;31.67;;;7.60;99.90;;;;;;5056963;28;20056;-73
2022/01/13 12:53:32;;;;;;;80.55;32.53;;;7.60;99.90;;;;;;5107878;28;20476;-71
2022/01/13 12:56:12;;;;;;;79.95;31.42;;;7.70;99.90;;;;;;5108176;28;20475;-71
2022/01/13 12:58:48;;;;;;;83.75;28.42;;;7.70;99.90;;;;;;5107801;28;20056;-71
2022/01/13 13:01:18;;;;;;;80.60;31.45;;;7.80;99.90;;;;;;5108229;28;20117;-71
2022/01/13 13:03:58;;;;;;;72.97;29.67;;;8.00;99.90;;;;;;5073797;28;20056;-71
2022/01/13 13:06:24;;;;;;;69.90;28.85;;;8.10;99.90;;;;;;5106958;28;20098;-71